createdAt,value
2018-11-13T00:00:39.091Z,75.20
2018-11-13T00:03:06.696Z,74.80
2018-11-13T00:05:34.243Z,74.40
2018-11-13T00:08:01.879Z,74.50
2018-11-13T00:10:29.468Z,74.30
2018-11-13T00:12:57.029Z,74.10
2018-11-13T00:15:24.675Z,73.80
2018-11-13T00:17:52.271Z,73.80
2018-11-13T00:20:19.909Z,73.50
2018-11-13T00:22:47.594Z,72.50
2018-11-13T00:25:16.416Z,72.00
2018-11-13T00:27:44.217Z,72.00
2018-11-13T00:32:47.318Z,71.90
2018-11-13T00:35:15.678Z,73.10
2018-11-13T00:37:46.210Z,72.50
2018-11-13T00:40:14.428Z,72.20
2018-11-13T00:42:45.588Z,72.40
2018-11-13T00:45:13.222Z,72.80
2018-11-13T00:47:42.052Z,72.50
2018-11-13T00:50:17.335Z,72.50
2018-11-13T00:52:46.061Z,72.00
2018-11-13T00:55:14.048Z,71.90
2018-11-13T00:57:42.644Z,72.70
2018-11-13T01:00:13.009Z,71.90
2018-11-13T01:02:40.648Z,71.70
2018-11-13T01:05:10.208Z,70.30
2018-11-13T01:07:37.732Z,68.90
2018-11-13T01:10:09.236Z,67.00
2018-11-13T01:12:36.795Z,67.00
2018-11-13T01:15:04.923Z,67.00
2018-11-13T01:17:32.699Z,66.40
2018-11-13T01:20:00.010Z,66.90
2018-11-13T01:22:27.531Z,68.20
2018-11-13T01:24:55.226Z,68.30
2018-11-13T01:27:22.750Z,69.70
2018-11-13T01:29:56.771Z,69.50
2018-11-13T01:32:25.719Z,69.50
2018-11-13T01:34:53.402Z,69.10
2018-11-13T01:37:22.614Z,69.10
2018-11-13T01:39:50.247Z,69.20
2018-11-13T01:42:17.766Z,68.30
2018-11-13T01:44:45.283Z,68.20
2018-11-13T01:47:13.081Z,68.00
2018-11-13T01:49:40.877Z,68.20
2018-11-13T01:52:08.233Z,69.10
2018-11-13T01:54:36.051Z,68.70
2018-11-13T01:57:04.065Z,68.80
2018-11-13T01:59:32.021Z,68.40
2018-11-13T02:01:59.727Z,67.80
2018-11-13T02:04:27.429Z,68.90
2018-11-13T02:06:55.973Z,68.40
2018-11-13T02:09:23.585Z,68.20
2018-11-13T02:11:51.233Z,68.40
2018-11-13T02:14:18.835Z,68.60
2018-11-13T02:16:46.479Z,68.90
2018-11-13T02:19:14.126Z,68.80
2018-11-13T02:21:41.907Z,68.30
2018-11-13T02:24:10.002Z,67.70
2018-11-13T02:26:37.583Z,68.00
2018-11-13T02:29:08.283Z,68.40
2018-11-13T02:31:36.048Z,68.70
2018-11-13T02:34:03.712Z,68.20
2018-11-13T02:36:31.409Z,68.60
2018-11-13T02:38:59.039Z,69.20
2018-11-13T02:41:26.718Z,68.40
2018-11-13T02:43:54.440Z,68.20
2018-11-13T02:46:22.102Z,69.00
2018-11-13T02:48:51.036Z,69.50
2018-11-13T02:51:18.638Z,70.20
2018-11-13T02:53:46.437Z,70.70
2018-11-13T02:56:14.102Z,71.80
2018-11-13T02:58:41.678Z,72.50
2018-11-13T03:01:09.396Z,72.70
2018-11-13T03:03:36.963Z,73.40
2018-11-13T03:06:04.819Z,73.60
2018-11-13T03:08:32.732Z,73.70
2018-11-13T03:11:00.694Z,73.40
2018-11-13T03:13:28.314Z,73.50
2018-11-13T03:15:55.911Z,74.30
2018-11-13T03:18:23.463Z,76.50
2018-11-13T03:20:51.055Z,76.80
2018-11-13T03:23:18.636Z,77.50
2018-11-13T03:25:46.227Z,78.00
2018-11-13T03:28:13.811Z,78.40
2018-11-13T03:30:41.399Z,78.40
2018-11-13T03:33:08.963Z,78.90
2018-11-13T03:35:37.036Z,79.20
2018-11-13T03:38:04.623Z,79.30
2018-11-13T03:40:32.428Z,78.90
2018-11-13T03:43:00.047Z,79.70
2018-11-13T03:45:27.587Z,79.70
2018-11-13T03:47:55.414Z,79.50
2018-11-13T03:50:23.012Z,78.80
2018-11-13T03:52:50.630Z,79.10
2018-11-13T03:55:18.831Z,78.90
2018-11-13T03:57:47.055Z,78.80
2018-11-13T04:00:16.784Z,78.60
2018-11-13T04:02:44.333Z,78.30
2018-11-13T04:05:13.105Z,78.50
2018-11-13T04:07:43.041Z,78.20
2018-11-13T04:10:12.012Z,78.30
2018-11-13T04:12:39.989Z,79.10
2018-11-13T04:15:08.599Z,79.00
2018-11-13T04:17:36.119Z,79.40
2018-11-13T04:20:04.798Z,79.50
2018-11-13T04:22:33.053Z,79.00
2018-11-13T04:25:00.560Z,78.60
2018-11-13T04:27:28.090Z,78.70
2018-11-13T04:29:55.677Z,78.10
2018-11-13T04:32:23.272Z,78.10
2018-11-13T04:34:50.940Z,77.30
2018-11-13T04:37:18.492Z,77.30
2018-11-13T04:39:46.035Z,77.80
2018-11-13T04:42:13.743Z,76.50
2018-11-13T04:44:41.282Z,76.50
2018-11-13T04:47:08.872Z,75.50
2018-11-13T04:49:36.627Z,75.30
2018-11-13T04:52:04.554Z,75.20
2018-11-13T04:54:32.515Z,74.10
2018-11-13T04:57:00.007Z,73.50
2018-11-13T04:59:27.540Z,73.10
2018-11-13T05:01:55.207Z,73.10
2018-11-13T05:04:54.308Z,73.80
2018-11-13T05:07:28.393Z,73.40
2018-11-13T05:09:55.772Z,73.70
2018-11-13T05:12:23.076Z,74.20
2018-11-13T05:14:50.407Z,74.50
2018-11-13T05:17:17.782Z,75.30
2018-11-13T05:19:45.175Z,73.90
2018-11-13T05:22:12.584Z,73.50
2018-11-13T05:24:39.932Z,72.80
2018-11-13T05:27:07.256Z,72.20
2018-11-13T05:29:34.597Z,71.90
2018-11-13T05:32:02.288Z,72.30
2018-11-13T05:34:29.587Z,71.60
2018-11-13T05:36:57.060Z,71.30
2018-11-13T05:39:24.391Z,71.00
2018-11-13T05:41:51.778Z,70.00
2018-11-13T05:44:19.008Z,69.20
2018-11-13T05:46:46.323Z,69.40
2018-11-13T05:49:13.789Z,69.60
2018-11-13T05:51:41.227Z,68.00
2018-11-13T05:54:08.668Z,68.70
2018-11-13T05:56:36.027Z,68.80
2018-11-13T05:59:03.626Z,68.40
2018-11-13T06:01:31.030Z,68.40
2018-11-13T06:03:58.416Z,67.90
2018-11-13T06:06:25.995Z,67.80
2018-11-13T06:08:53.541Z,67.40
2018-11-13T06:11:20.995Z,67.60
2018-11-13T06:13:48.426Z,66.50
2018-11-13T06:16:15.994Z,66.40
2018-11-13T06:18:43.367Z,67.50
2018-11-13T06:21:10.855Z,66.60
2018-11-13T06:23:38.238Z,66.10
2018-11-13T06:26:05.604Z,66.70
2018-11-13T06:28:33.002Z,66.30
2018-11-13T06:31:00.451Z,66.30
2018-11-13T06:33:27.920Z,66.30
2018-11-13T06:35:55.583Z,66.50
2018-11-13T06:38:22.963Z,65.90
2018-11-13T06:40:50.395Z,65.40
2018-11-13T06:43:17.787Z,65.20
2018-11-13T06:45:45.174Z,64.80
2018-11-13T06:48:14.145Z,64.60
2018-11-13T06:50:41.771Z,64.60
2018-11-13T06:53:09.083Z,65.40
2018-11-13T06:55:38.307Z,64.50
2018-11-13T06:58:05.855Z,64.90
2018-11-13T07:00:33.163Z,64.40
2018-11-13T07:03:00.492Z,64.20
2018-11-13T07:05:27.838Z,63.30
2018-11-13T07:07:56.347Z,62.70
2018-11-13T07:10:24.838Z,61.80
2018-11-13T07:12:52.888Z,62.70
2018-11-13T07:15:21.388Z,62.10
2018-11-13T07:17:49.966Z,62.10
2018-11-13T07:20:19.142Z,62.30
2018-11-13T07:22:46.530Z,63.20
2018-11-13T07:25:14.105Z,62.40
2018-11-13T07:27:42.152Z,61.60
2018-11-13T07:30:10.745Z,61.00
2018-11-13T07:32:38.703Z,62.00
2018-11-13T07:35:06.630Z,63.50
2018-11-13T07:37:33.994Z,62.10
2018-11-13T07:40:01.344Z,60.90
2018-11-13T07:42:28.738Z,60.40
2018-11-13T07:44:56.071Z,60.50
2018-11-13T07:47:23.540Z,58.30
2018-11-13T07:49:50.796Z,58.70
2018-11-13T07:52:18.175Z,58.20
2018-11-13T07:54:45.575Z,58.40
2018-11-13T07:57:12.872Z,57.70
2018-11-13T07:59:40.196Z,55.80
2018-11-13T08:02:07.555Z,55.80
2018-11-13T08:04:35.327Z,55.30
2018-11-13T08:07:03.121Z,54.00
2018-11-13T08:09:30.520Z,52.50
2018-11-13T08:11:57.967Z,53.20
2018-11-13T08:14:25.568Z,51.00
2018-11-13T08:16:52.905Z,51.80
2018-11-13T08:19:20.243Z,49.20
2018-11-13T08:21:47.622Z,48.90
2018-11-13T08:24:15.030Z,48.90
2018-11-13T08:26:42.387Z,48.30
2018-11-13T08:29:09.733Z,47.80
2018-11-13T08:31:37.032Z,44.90
2018-11-13T08:34:04.702Z,45.60
2018-11-13T08:36:32.275Z,44.70
2018-11-13T08:38:59.599Z,45.50
2018-11-13T08:41:27.032Z,43.80
2018-11-13T08:43:54.688Z,42.40
2018-11-13T08:46:22.064Z,42.30
2018-11-13T08:48:49.423Z,42.30
2018-11-13T08:51:16.823Z,43.60
2018-11-13T08:53:44.220Z,43.50
2018-11-13T08:56:11.630Z,41.70
2018-11-13T08:58:39.264Z,42.00
2018-11-13T09:01:06.603Z,42.30
2018-11-13T09:03:33.966Z,40.90
2018-11-13T09:06:01.362Z,41.60
2018-11-13T09:08:30.822Z,41.70
2018-11-13T09:10:58.389Z,41.90
2018-11-13T09:13:30.627Z,40.40
2018-11-13T09:15:58.014Z,40.70
2018-11-13T09:18:25.415Z,41.50
2018-11-13T09:20:52.908Z,40.90
2018-11-13T09:23:20.749Z,39.00
2018-11-13T09:25:48.183Z,37.50
2018-11-13T09:28:15.890Z,35.60
2018-11-13T09:30:43.541Z,36.70
2018-11-13T09:33:10.689Z,33.00
2018-11-13T09:35:38.082Z,33.00
2018-11-13T09:38:05.479Z,32.10
2018-11-13T09:40:32.887Z,33.20
2018-11-13T09:43:00.274Z,30.90
2018-11-13T09:45:27.668Z,32.00
2018-11-13T09:47:55.280Z,32.70
2018-11-13T09:50:24.852Z,30.60
2018-11-13T09:52:52.566Z,31.40
2018-11-13T09:55:21.080Z,30.50
2018-11-13T09:57:48.483Z,30.80
2018-11-13T10:00:24.650Z,29.10
2018-11-13T10:02:53.855Z,28.90
2018-11-13T10:05:21.180Z,29.60
2018-11-13T10:07:49.007Z,30.00
2018-11-13T10:10:16.497Z,30.00
2018-11-13T10:12:44.432Z,27.70
2018-11-13T10:15:14.028Z,28.80
2018-11-13T10:17:41.487Z,27.90
2018-11-13T10:20:09.867Z,26.70
2018-11-13T10:22:37.167Z,26.50
2018-11-13T10:25:05.588Z,27.30
2018-11-13T10:27:33.886Z,26.50
2018-11-13T10:30:01.355Z,25.50
2018-11-13T10:32:28.529Z,26.30
2018-11-13T10:34:55.796Z,26.30
2018-11-13T10:37:26.674Z,25.80
2018-11-13T10:39:53.973Z,25.40
2018-11-13T10:42:21.300Z,25.40
2018-11-13T10:44:48.603Z,24.40
2018-11-13T10:47:15.975Z,25.20
2018-11-13T10:49:47.584Z,23.20
2018-11-13T10:52:14.972Z,23.00
2018-11-13T10:54:42.392Z,22.60
2018-11-13T10:57:09.789Z,21.70
2018-11-13T10:59:37.283Z,22.40
2018-11-13T11:04:12.670Z,20.30
2018-11-13T11:06:40.275Z,19.70
2018-11-13T11:09:08.620Z,17.50
2018-11-13T11:11:39.967Z,17.40
2018-11-13T11:14:07.548Z,16.00
2018-11-13T11:16:35.295Z,15.90
2018-11-13T11:19:02.909Z,14.70
2018-11-13T11:21:30.472Z,13.90
2018-11-13T11:23:58.129Z,14.60
2018-11-13T11:26:28.184Z,14.70
2018-11-13T11:28:55.749Z,13.90
2018-11-13T11:31:23.340Z,14.40
2018-11-13T11:33:50.919Z,13.50
2018-11-13T11:36:18.463Z,13.50
2018-11-13T11:38:46.182Z,13.30
2018-11-13T11:41:18.943Z,13.30
2018-11-13T11:43:46.326Z,13.40
2018-11-13T11:46:13.691Z,13.40
2018-11-13T11:48:41.239Z,15.10
2018-11-13T11:51:08.639Z,13.80
2018-11-13T11:53:35.972Z,13.20
2018-11-13T11:56:03.571Z,13.50
2018-11-13T11:58:30.855Z,12.70
2018-11-13T12:00:58.204Z,12.30
2018-11-13T12:03:25.503Z,13.20
2018-11-13T12:05:52.810Z,12.40
2018-11-13T12:08:20.098Z,12.20
2018-11-13T12:10:47.387Z,12.80
2018-11-13T12:13:14.694Z,11.10
2018-11-13T12:15:42.085Z,10.70
2018-11-13T12:18:09.474Z,10.80
2018-11-13T12:20:36.836Z,11.50
2018-11-13T12:23:04.541Z,10.90
2018-11-13T12:25:32.342Z,11.70
2018-11-13T12:27:59.697Z,10.90
2018-11-13T12:30:27.166Z,11.00
2018-11-13T12:32:54.474Z,10.10
2018-11-13T12:35:23.314Z,10.20
2018-11-13T12:37:50.623Z,11.30
2018-11-13T12:40:20.219Z,10.50
2018-11-13T12:42:48.189Z,8.80
2018-11-13T12:45:15.560Z,9.80
2018-11-13T12:47:43.314Z,10.90
2018-11-13T12:50:11.690Z,10.60
2018-11-13T12:52:39.108Z,10.90
2018-11-13T12:55:11.147Z,11.00
2018-11-13T12:57:38.508Z,11.20
2018-11-13T13:00:12.850Z,12.80
2018-11-13T13:02:40.231Z,11.60
2018-11-13T13:05:09.103Z,11.20
2018-11-13T13:07:37.263Z,11.30
2018-11-13T13:10:07.787Z,10.90
2018-11-13T13:12:35.283Z,8.80
2018-11-13T13:15:02.809Z,9.60
2018-11-13T13:17:30.121Z,8.30
2018-11-13T13:19:58.932Z,8.90
2018-11-13T13:22:26.375Z,8.90
2018-11-13T13:24:53.780Z,7.80
2018-11-13T13:27:21.258Z,8.70
2018-11-13T13:29:48.626Z,8.50
2018-11-13T13:32:16.018Z,9.60
2018-11-13T13:34:43.413Z,7.40
2018-11-13T13:37:10.854Z,6.30
2018-11-13T13:39:38.263Z,7.10
2018-11-13T13:42:06.631Z,6.30
2018-11-13T13:44:33.975Z,7.50
2018-11-13T13:47:01.329Z,7.80
2018-11-13T13:49:28.723Z,6.90
2018-11-13T13:51:56.113Z,8.20
2018-11-13T13:54:23.545Z,8.40
2018-11-13T13:56:50.863Z,8.10
2018-11-13T13:59:18.264Z,8.30
2018-11-13T14:01:45.668Z,8.30
2018-11-13T14:04:13.043Z,9.20
2018-11-13T14:06:40.846Z,8.80
2018-11-13T14:09:09.160Z,9.00
2018-11-13T14:11:39.044Z,8.70
2018-11-13T14:14:06.680Z,9.40
2018-11-13T14:16:34.085Z,8.60
2018-11-13T14:19:02.133Z,8.60
2018-11-13T14:21:29.507Z,9.10
2018-11-13T14:23:56.907Z,8.90
2018-11-13T14:26:24.284Z,9.10
2018-11-13T14:28:51.977Z,8.40
2018-11-13T14:31:19.274Z,7.20
2018-11-13T14:33:46.683Z,7.30
2018-11-13T14:36:14.143Z,7.90
2018-11-13T14:38:42.767Z,6.80
2018-11-13T14:41:10.168Z,7.10
2018-11-13T14:43:37.567Z,7.80
2018-11-13T14:46:05.496Z,7.90
2018-11-13T14:48:36.606Z,7.30
2018-11-13T14:51:04.513Z,8.20
2018-11-13T14:53:32.691Z,8.30
2018-11-13T14:56:00.028Z,8.60
2018-11-13T14:58:27.442Z,7.90
2018-11-13T15:00:55.992Z,7.90
2018-11-13T15:03:23.327Z,8.10
2018-11-13T15:05:51.715Z,8.60
2018-11-13T15:08:19.073Z,7.80
2018-11-13T15:10:50.539Z,8.10
2018-11-13T15:13:21.435Z,8.10
2018-11-13T15:15:48.880Z,8.50
2018-11-13T15:18:16.235Z,8.10
2018-11-13T15:20:45.398Z,8.30
2018-11-13T15:23:13.087Z,8.40
2018-11-13T15:25:40.551Z,8.60
2018-11-13T15:28:08.526Z,9.30
2018-11-13T15:30:37.334Z,9.50
2018-11-13T15:33:13.006Z,9.10
2018-11-13T15:35:40.331Z,8.90
2018-11-13T15:38:07.947Z,9.30
2018-11-13T15:40:35.572Z,9.80
2018-11-13T15:43:02.929Z,10.00
2018-11-13T15:45:30.311Z,10.10
2018-11-13T15:47:59.815Z,9.90
2018-11-13T15:50:29.263Z,9.60
2018-11-13T15:52:56.839Z,9.40
2018-11-13T15:55:24.278Z,9.60
2018-11-13T15:57:51.824Z,9.40
2018-11-13T16:00:21.723Z,9.50
2018-11-13T16:02:49.279Z,10.30
2018-11-13T16:05:21.451Z,10.20
2018-11-13T16:07:49.755Z,10.40
2018-11-13T16:10:17.415Z,10.70
2018-11-13T16:12:45.623Z,10.60
2018-11-13T16:15:13.323Z,10.80
2018-11-13T16:17:40.963Z,11.00
2018-11-13T16:20:08.939Z,11.10
2018-11-13T16:22:36.859Z,11.20
2018-11-13T16:25:05.498Z,11.30
2018-11-13T16:27:33.299Z,11.40
2018-11-13T16:30:01.288Z,11.20
2018-11-13T16:32:30.082Z,11.30
2018-11-13T16:34:57.856Z,11.80
2018-11-13T16:37:25.602Z,11.60
2018-11-13T16:39:53.243Z,12.10
2018-11-13T16:42:21.200Z,12.30
2018-11-13T16:44:49.791Z,12.80
2018-11-13T16:47:17.378Z,12.90
2018-11-13T16:49:44.971Z,12.90
2018-11-13T16:52:12.548Z,12.80
2018-11-13T16:54:49.612Z,12.80
2018-11-13T16:57:17.778Z,12.80
2018-11-13T16:59:45.660Z,13.30
2018-11-13T17:02:13.155Z,13.80
2018-11-13T17:04:40.610Z,14.00
2018-11-13T17:07:08.146Z,14.70
2018-11-13T17:09:35.530Z,15.20
2018-11-13T17:12:05.090Z,14.70
2018-11-13T17:14:33.742Z,14.90
2018-11-13T17:17:01.121Z,14.20
2018-11-13T17:19:28.596Z,14.50
2018-11-13T17:21:56.167Z,14.70
2018-11-13T17:24:23.543Z,14.80
2018-11-13T17:26:50.923Z,14.90
2018-11-13T17:29:18.321Z,15.20
2018-11-13T17:31:45.749Z,15.40
2018-11-13T17:34:13.163Z,15.60
2018-11-13T17:36:41.131Z,15.60
2018-11-13T17:39:10.438Z,15.60
2018-11-13T17:41:37.843Z,15.30
2018-11-13T17:44:05.454Z,15.50
2018-11-13T17:46:32.902Z,15.70
2018-11-13T17:49:00.500Z,15.60
2018-11-13T17:51:28.131Z,15.70
2018-11-13T17:53:55.752Z,16.60
2018-11-13T17:56:23.411Z,16.40
2018-11-13T17:58:51.080Z,16.50
2018-11-13T18:01:24.611Z,16.50
2018-11-13T18:03:52.048Z,16.20
2018-11-13T18:06:19.467Z,16.10
2018-11-13T18:08:46.837Z,16.70
2018-11-13T18:11:14.235Z,17.00
2018-11-13T18:13:44.251Z,17.00
2018-11-13T18:16:11.651Z,16.90
2018-11-13T18:18:39.043Z,17.50
2018-11-13T18:21:06.464Z,17.30
2018-11-13T18:23:33.933Z,17.30
2018-11-13T18:26:01.280Z,17.60
2018-11-13T18:28:28.945Z,17.50
2018-11-13T18:30:56.168Z,18.10
2018-11-13T18:33:23.655Z,18.50
2018-11-13T18:35:52.167Z,18.20
2018-11-13T18:38:19.591Z,18.40
2018-11-13T18:40:47.006Z,19.30
2018-11-13T18:43:14.411Z,19.20
2018-11-13T18:45:42.165Z,19.30
2018-11-13T18:48:09.829Z,19.60
2018-11-13T18:50:39.677Z,20.20
2018-11-13T18:53:07.389Z,20.90
2018-11-13T18:55:35.126Z,21.10
2018-11-13T18:58:02.800Z,20.90
2018-11-13T19:00:31.612Z,20.90
2018-11-13T19:03:00.209Z,21.00
2018-11-13T19:05:28.015Z,21.30
2018-11-13T19:07:56.032Z,21.90
2018-11-13T19:10:47.296Z,22.00
2018-11-13T19:13:19.367Z,22.00
2018-11-13T19:15:56.622Z,22.50
2018-11-13T19:18:24.127Z,22.40
2018-11-13T19:20:51.536Z,22.90
2018-11-13T19:23:19.587Z,23.00
2018-11-13T19:25:47.071Z,22.60
2018-11-13T19:28:16.458Z,23.20
2018-11-13T19:30:43.904Z,23.10
2018-11-13T19:33:11.283Z,23.20
2018-11-13T19:35:38.927Z,22.70
2018-11-13T19:38:06.231Z,23.30
2018-11-13T19:40:38.218Z,24.30
2018-11-13T19:43:07.047Z,24.90
2018-11-13T19:45:34.420Z,25.60
2018-11-13T19:48:01.860Z,25.10
2018-11-13T19:50:31.563Z,24.60
2018-11-13T19:53:02.480Z,24.80
2018-11-13T19:55:30.461Z,25.10
2018-11-13T19:57:57.870Z,25.80
2018-11-13T20:00:30.302Z,25.40
2018-11-13T20:03:06.215Z,26.00
2018-11-13T20:05:33.676Z,26.70
2018-11-13T20:08:01.182Z,26.80
2018-11-13T20:10:29.848Z,27.10
2018-11-13T20:12:58.610Z,27.20
2018-11-13T20:15:27.995Z,27.80
2018-11-13T20:17:55.498Z,28.30
2018-11-13T20:20:24.161Z,27.70
2018-11-13T20:22:52.219Z,27.40
2018-11-13T20:25:22.999Z,27.60
2018-11-13T20:27:50.446Z,28.20
2018-11-13T20:30:20.156Z,29.50
2018-11-13T20:32:47.647Z,29.70
2018-11-13T20:35:15.043Z,29.20
2018-11-13T20:37:43.937Z,29.00
2018-11-13T20:40:13.163Z,29.10
2018-11-13T20:42:41.020Z,28.40
2018-11-13T20:45:09.225Z,28.50
2018-11-13T20:47:36.792Z,28.80
2018-11-13T20:50:05.663Z,29.20
2018-11-13T20:52:33.160Z,30.00
2018-11-13T20:55:00.997Z,30.60
2018-11-13T20:57:28.904Z,31.80
2018-11-13T20:59:56.700Z,30.10
2018-11-13T21:02:24.199Z,29.10
2018-11-13T21:04:51.548Z,30.60
2018-11-13T21:07:18.941Z,31.30
2018-11-13T21:09:46.326Z,31.20
2018-11-13T21:12:13.687Z,30.50
2018-11-13T21:14:41.174Z,30.20
2018-11-13T21:17:08.693Z,31.70
2018-11-13T21:19:39.875Z,31.90
2018-11-13T21:22:07.251Z,31.60
2018-11-13T21:24:34.717Z,31.50
2018-11-13T21:27:04.949Z,31.50
2018-11-13T21:29:32.507Z,31.50
2018-11-13T21:32:00.071Z,31.60
2018-11-13T21:34:27.827Z,31.30
2018-11-13T21:36:55.283Z,31.60
2018-11-13T21:39:22.639Z,31.70
2018-11-13T21:41:50.365Z,31.80
2018-11-13T21:44:17.787Z,31.60
2018-11-13T21:46:45.170Z,31.50
2018-11-13T21:49:12.542Z,31.50
2018-11-13T21:51:39.927Z,32.70
2018-11-13T21:54:07.287Z,34.30
2018-11-13T21:56:34.614Z,35.70
2018-11-13T21:59:01.927Z,36.10
2018-11-13T22:01:29.299Z,36.20
2018-11-13T22:03:56.616Z,35.80
2018-11-13T22:06:23.894Z,35.70
2018-11-13T22:08:51.267Z,36.80
2018-11-13T22:11:18.698Z,37.00
2018-11-13T22:13:46.172Z,36.60
2018-11-13T22:16:13.802Z,36.40
2018-11-13T22:18:40.739Z,35.40
2018-11-13T22:21:08.096Z,36.70
2018-11-13T22:23:35.378Z,37.90
2018-11-13T22:26:02.619Z,37.80
2018-11-13T22:28:31.538Z,38.00
2018-11-13T22:30:58.895Z,37.90
2018-11-13T22:33:26.186Z,37.40
2018-11-13T22:35:58.561Z,36.90
2018-11-13T22:38:25.848Z,36.20
2018-11-13T22:40:53.181Z,38.30
2018-11-13T22:43:22.034Z,38.50
2018-11-13T22:45:49.324Z,38.40
2018-11-13T22:48:16.612Z,38.00
2018-11-13T22:50:43.958Z,38.10
2018-11-13T22:53:11.184Z,37.70
2018-11-13T22:55:38.450Z,37.00
2018-11-13T22:58:05.726Z,35.70
2018-11-13T23:00:39.043Z,35.30
2018-11-13T23:03:08.032Z,35.50
2018-11-13T23:05:35.534Z,35.10
2018-11-13T23:08:03.051Z,35.80
2018-11-13T23:10:30.550Z,35.90
2018-11-13T23:13:00.092Z,35.80
2018-11-13T23:15:27.827Z,35.70
2018-11-13T23:17:58.343Z,35.70
2018-11-13T23:20:27.983Z,35.60
2018-11-13T23:22:55.514Z,35.50
2018-11-13T23:25:22.978Z,35.40
2018-11-13T23:27:51.013Z,34.60
2018-11-13T23:30:19.836Z,34.10
2018-11-13T23:32:47.497Z,34.70
2018-11-13T23:35:15.619Z,35.50
2018-11-13T23:37:44.208Z,36.00
2018-11-13T23:40:13.272Z,36.50
2018-11-13T23:42:41.139Z,37.60
2018-11-13T23:45:09.022Z,36.60
2018-11-13T23:47:36.345Z,36.80
2018-11-13T23:50:03.739Z,36.90
2018-11-13T23:52:31.651Z,37.50
2018-11-13T23:54:59.091Z,36.90
2018-11-13T23:57:26.686Z,37.20
2018-11-13T23:59:54.470Z,37.00
